createdAt,value
2023-10-29T00:08:07.020Z,59.92
2023-10-29T19:43:25.425Z,53.71
2023-10-29T19:45:55.521Z,53.83
2023-10-29T19:48:22.311Z,54.02
2023-10-29T19:50:56.715Z,53.53
2023-10-29T19:53:23.249Z,53.27
2023-10-29T19:55:49.722Z,53.52
2023-10-29T19:58:16.206Z,53.70
2023-10-29T20:00:42.841Z,53.77
2023-10-29T20:03:09.779Z,53.99
2023-10-29T20:05:36.927Z,53.42
2023-10-29T20:08:04.079Z,53.31
2023-10-29T20:10:37.289Z,53.59
2023-10-29T20:13:04.078Z,53.81
2023-10-29T20:15:32.625Z,53.77
2023-10-29T20:18:01.757Z,53.62
2023-10-29T20:20:28.980Z,53.45
2023-10-29T20:22:57.513Z,53.78
2023-10-29T20:25:27.087Z,53.91
2023-10-29T20:27:53.574Z,53.84
2023-10-29T20:30:20.233Z,53.66
2023-10-29T20:32:46.958Z,53.59
2023-10-29T20:35:13.518Z,53.47
2023-10-29T20:37:40.074Z,53.54
2023-10-29T20:40:06.830Z,53.55
2023-10-29T20:42:33.363Z,53.54
2023-10-29T20:44:59.977Z,53.59
2023-10-29T20:47:26.499Z,53.61
2023-10-29T20:49:53.026Z,53.55
2023-10-29T20:52:19.907Z,53.87
2023-10-29T20:54:46.410Z,53.88
2023-10-29T20:57:12.905Z,53.61
2023-10-29T20:59:39.458Z,53.64
2023-10-29T21:02:06.371Z,53.65
2023-10-29T21:04:33.066Z,53.59
2023-10-29T21:06:59.676Z,53.23
2023-10-29T21:09:26.265Z,53.23
2023-10-29T21:11:53.184Z,53.32
2023-10-29T21:14:19.886Z,53.50
2023-10-29T21:16:46.492Z,53.61
2023-10-29T21:19:13.071Z,53.06
2023-10-29T21:21:39.632Z,53.27
2023-10-29T21:24:06.498Z,53.53
2023-10-29T21:26:34.948Z,53.56
2023-10-29T21:29:01.436Z,53.49
2023-10-29T21:31:27.995Z,53.05
2023-10-29T21:33:54.568Z,53.24
2023-10-29T21:36:21.169Z,53.26
2023-10-29T21:38:47.802Z,53.18
2023-10-29T21:41:17.332Z,53.18
2023-10-29T21:43:43.869Z,53.11
2023-10-29T21:46:10.423Z,53.61
2023-10-29T21:48:37.447Z,52.95
2023-10-29T21:51:06.691Z,53.15
2023-10-29T21:53:33.573Z,53.17
2023-10-29T21:56:03.485Z,52.94
2023-10-29T21:58:29.987Z,52.41
2023-10-29T22:00:56.676Z,52.64
2023-10-29T22:03:23.662Z,52.49
2023-10-29T22:06:05.087Z,52.69
2023-10-29T22:08:31.857Z,52.22
2023-10-29T22:11:02.471Z,52.57
2023-10-29T22:13:29.677Z,51.91
2023-10-29T22:16:03.983Z,52.40
2023-10-29T22:18:30.526Z,52.49
2023-10-29T22:21:00.859Z,52.36
2023-10-29T22:23:27.433Z,52.00
2023-10-29T22:25:53.936Z,52.98
2023-10-29T22:28:20.459Z,52.76
2023-10-29T22:30:47.038Z,51.23
2023-10-29T22:33:13.590Z,51.32
2023-10-29T22:35:41.546Z,51.81
2023-10-29T22:38:08.253Z,51.51
2023-10-29T22:40:34.801Z,51.11
2023-10-29T22:43:01.318Z,51.74
2023-10-29T22:45:27.943Z,52.20
2023-10-29T22:47:55.280Z,51.68
2023-10-29T22:50:21.783Z,51.78
2023-10-29T22:52:48.326Z,51.91
2023-10-29T22:55:16.847Z,52.19
2023-10-29T22:57:43.348Z,51.59
2023-10-29T23:00:15.913Z,51.90
2023-10-29T23:02:42.580Z,52.47
2023-10-29T23:05:09.920Z,52.42
2023-10-29T23:07:36.446Z,52.28
2023-10-29T23:10:03.532Z,52.08
2023-10-29T23:12:30.057Z,52.33
2023-10-29T23:14:56.565Z,52.22
2023-10-29T23:17:23.087Z,52.47
2023-10-29T23:19:49.912Z,52.13
2023-10-29T23:22:16.643Z,51.95
2023-10-29T23:24:44.224Z,52.79
2023-10-29T23:27:10.760Z,52.65
2023-10-29T23:29:37.503Z,52.27
2023-10-29T23:32:04.273Z,52.57
2023-10-29T23:34:30.835Z,52.34
2023-10-29T23:36:57.331Z,52.50
2023-10-29T23:39:24.223Z,52.76
2023-10-29T23:41:50.773Z,52.66
2023-10-29T23:44:17.249Z,52.45
2023-10-29T23:46:43.813Z,52.36
2023-10-29T23:49:10.378Z,52.32
2023-10-29T23:51:36.917Z,52.33
2023-10-29T23:54:03.632Z,52.63
2023-10-29T23:56:30.151Z,52.58
2023-10-29T23:58:56.656Z,52.76
